sensor_id;sensor_type;location;lat;lon;timestamp;P1;durP1;ratioP1;P2;durP2;ratioP2
25657;SDS011;13517;59.320;18.042;2022-07-01T00:01:21;19.02;;;16.48;;
25657;SDS011;13517;59.320;18.042;2022-07-01T00:03:47;23.90;;;17.65;;
25657;SDS011;13517;59.320;18.042;2022-07-01T00:06:16;22.98;;;16.85;;
25657;SDS011;13517;59.320;18.042;2022-07-01T00:08:42;21.10;;;16.08;;
25657;SDS011;13517;59.320;18.042;2022-07-01T00:11:07;21.05;;;17.35;;
25657;SDS011;13517;59.320;18.042;2022-07-01T00:13:33;19.00;;;16.83;;
25657;SDS011;13517;59.320;18.042;2022-07-01T00:15:59;20.42;;;16.10;;
25657;SDS011;13517;59.320;18.042;2022-07-01T00:18:24;23.55;;;16.88;;
25657;SDS011;13517;59.320;18.042;2022-07-01T00:20:50;22.42;;;17.90;;
25657;SDS011;13517;59.320;18.042;2022-07-01T00:23:16;20.25;;;18.05;;
25657;SDS011;13517;59.320;18.042;2022-07-01T00:25:42;20.40;;;17.55;;
25657;SDS011;13517;59.320;18.042;2022-07-01T00:28:08;22.38;;;17.60;;
25657;SDS011;13517;59.320;18.042;2022-07-01T00:30:34;20.65;;;16.58;;
25657;SDS011;13517;59.320;18.042;2022-07-01T00:32:59;19.75;;;17.45;;
25657;SDS011;13517;59.320;18.042;2022-07-01T00:35:24;20.55;;;17.70;;
25657;SDS011;13517;59.320;18.042;2022-07-01T00:37:50;23.95;;;18.50;;
25657;SDS011;13517;59.320;18.042;2022-07-01T00:40:15;23.63;;;18.17;;
25657;SDS011;13517;59.320;18.042;2022-07-01T00:42:40;22.85;;;18.40;;
25657;SDS011;13517;59.320;18.042;2022-07-01T00:45:08;22.85;;;18.65;;
25657;SDS011;13517;59.320;18.042;2022-07-01T00:47:34;23.02;;;18.02;;
25657;SDS011;13517;59.320;18.042;2022-07-01T00:50:01;25.60;;;19.58;;
25657;SDS011;13517;59.320;18.042;2022-07-01T00:52:26;26.67;;;19.58;;
25657;SDS011;13517;59.320;18.042;2022-07-01T00:54:51;26.75;;;19.40;;
25657;SDS011;13517;59.320;18.042;2022-07-01T00:57:20;26.88;;;19.45;;
25657;SDS011;13517;59.320;18.042;2022-07-01T00:59:45;22.80;;;19.40;;
25657;SDS011;13517;59.320;18.042;2022-07-01T01:02:11;22.77;;;18.92;;
25657;SDS011;13517;59.320;18.042;2022-07-01T01:04:36;24.27;;;18.77;;
25657;SDS011;13517;59.320;18.042;2022-07-01T01:07:02;22.90;;;18.92;;
25657;SDS011;13517;59.320;18.042;2022-07-01T01:09:28;25.75;;;18.90;;
25657;SDS011;13517;59.320;18.042;2022-07-01T01:11:58;24.77;;;19.17;;
25657;SDS011;13517;59.320;18.042;2022-07-01T01:14:23;24.65;;;18.40;;
25657;SDS011;13517;59.320;18.042;2022-07-01T01:16:49;23.30;;;18.50;;
25657;SDS011;13517;59.320;18.042;2022-07-01T01:19:14;22.02;;;18.70;;
25657;SDS011;13517;59.320;18.042;2022-07-01T01:21:39;21.23;;;18.67;;
25657;SDS011;13517;59.320;18.042;2022-07-01T01:24:05;24.50;;;18.45;;
25657;SDS011;13517;59.320;18.042;2022-07-01T01:26:32;22.77;;;17.98;;
25657;SDS011;13517;59.320;18.042;2022-07-01T01:28:57;21.30;;;18.52;;
25657;SDS011;13517;59.320;18.042;2022-07-01T01:31:29;23.25;;;19.20;;
25657;SDS011;13517;59.320;18.042;2022-07-01T01:33:57;23.42;;;18.98;;
25657;SDS011;13517;59.320;18.042;2022-07-01T01:36:22;27.30;;;19.10;;
25657;SDS011;13517;59.320;18.042;2022-07-01T01:38:48;26.73;;;18.70;;
25657;SDS011;13517;59.320;18.042;2022-07-01T01:41:13;21.20;;;17.50;;
25657;SDS011;13517;59.320;18.042;2022-07-01T01:43:39;25.30;;;19.08;;
25657;SDS011;13517;59.320;18.042;2022-07-01T01:46:04;22.95;;;18.88;;
25657;SDS011;13517;59.320;18.042;2022-07-01T01:48:30;23.35;;;18.17;;
25657;SDS011;13517;59.320;18.042;2022-07-01T01:50:56;21.92;;;17.70;;
25657;SDS011;13517;59.320;18.042;2022-07-01T01:53:21;26.58;;;19.55;;
25657;SDS011;13517;59.320;18.042;2022-07-01T01:55:47;24.45;;;18.13;;
25657;SDS011;13517;59.320;18.042;2022-07-01T01:58:12;20.27;;;17.52;;
25657;SDS011;13517;59.320;18.042;2022-07-01T02:00:37;25.98;;;18.13;;
25657;SDS011;13517;59.320;18.042;2022-07-01T02:03:03;26.08;;;19.52;;
25657;SDS011;13517;59.320;18.042;2022-07-01T02:05:28;22.42;;;18.52;;
25657;SDS011;13517;59.320;18.042;2022-07-01T02:07:54;24.27;;;18.35;;
25657;SDS011;13517;59.320;18.042;2022-07-01T02:10:19;20.45;;;17.40;;
25657;SDS011;13517;59.320;18.042;2022-07-01T02:12:45;23.30;;;17.95;;
25657;SDS011;13517;59.320;18.042;2022-07-01T02:15:12;23.98;;;17.70;;
25657;SDS011;13517;59.320;18.042;2022-07-01T02:17:37;20.35;;;17.10;;
25657;SDS011;13517;59.320;18.042;2022-07-01T02:20:03;20.30;;;16.60;;
25657;SDS011;13517;59.320;18.042;2022-07-01T02:22:29;20.65;;;16.88;;
25657;SDS011;13517;59.320;18.042;2022-07-01T02:24:54;25.02;;;16.65;;
25657;SDS011;13517;59.320;18.042;2022-07-01T02:27:19;18.03;;;15.27;;
25657;SDS011;13517;59.320;18.042;2022-07-01T02:29:45;20.75;;;15.63;;
25657;SDS011;13517;59.320;18.042;2022-07-01T02:32:10;21.75;;;15.57;;
25657;SDS011;13517;59.320;18.042;2022-07-01T02:34:35;21.38;;;15.80;;
25657;SDS011;13517;59.320;18.042;2022-07-01T02:37:01;21.85;;;16.17;;
25657;SDS011;13517;59.320;18.042;2022-07-01T02:39:27;22.90;;;17.45;;
25657;SDS011;13517;59.320;18.042;2022-07-01T02:41:52;23.75;;;17.42;;
25657;SDS011;13517;59.320;18.042;2022-07-01T02:44:36;22.23;;;18.63;;
25657;SDS011;13517;59.320;18.042;2022-07-01T02:47:01;23.85;;;19.25;;
25657;SDS011;13517;59.320;18.042;2022-07-01T02:49:26;24.88;;;18.95;;
25657;SDS011;13517;59.320;18.042;2022-07-01T02:51:52;29.30;;;20.47;;
25657;SDS011;13517;59.320;18.042;2022-07-01T02:54:17;26.63;;;19.77;;
25657;SDS011;13517;59.320;18.042;2022-07-01T02:56:43;28.63;;;20.55;;
25657;SDS011;13517;59.320;18.042;2022-07-01T02:59:08;26.10;;;19.85;;
25657;SDS011;13517;59.320;18.042;2022-07-01T03:01:33;26.67;;;19.80;;
25657;SDS011;13517;59.320;18.042;2022-07-01T03:03:59;26.27;;;20.10;;
25657;SDS011;13517;59.320;18.042;2022-07-01T03:06:24;28.67;;;21.67;;
25657;SDS011;13517;59.320;18.042;2022-07-01T03:08:50;26.92;;;20.65;;
25657;SDS011;13517;59.320;18.042;2022-07-01T03:11:15;31.48;;;20.52;;
25657;SDS011;13517;59.320;18.042;2022-07-01T03:13:40;33.65;;;22.90;;
25657;SDS011;13517;59.320;18.042;2022-07-01T03:16:06;39.97;;;25.05;;
25657;SDS011;13517;59.320;18.042;2022-07-01T03:18:31;48.72;;;27.15;;
25657;SDS011;13517;59.320;18.042;2022-07-01T03:20:56;54.45;;;27.65;;
25657;SDS011;13517;59.320;18.042;2022-07-01T03:23:21;40.37;;;27.70;;
25657;SDS011;13517;59.320;18.042;2022-07-01T03:25:47;42.00;;;27.95;;
25657;SDS011;13517;59.320;18.042;2022-07-01T03:28:12;50.85;;;30.38;;
25657;SDS011;13517;59.320;18.042;2022-07-01T03:30:38;43.55;;;28.17;;
25657;SDS011;13517;59.320;18.042;2022-07-01T03:33:03;45.72;;;29.38;;
25657;SDS011;13517;59.320;18.042;2022-07-01T03:35:28;57.13;;;34.07;;
25657;SDS011;13517;59.320;18.042;2022-07-01T03:38:04;45.83;;;28.45;;
25657;SDS011;13517;59.320;18.042;2022-07-01T03:40:31;55.47;;;32.65;;
25657;SDS011;13517;59.320;18.042;2022-07-01T03:42:57;57.80;;;33.03;;
25657;SDS011;13517;59.320;18.042;2022-07-01T03:45:22;71.63;;;34.78;;
25657;SDS011;13517;59.320;18.042;2022-07-01T03:47:48;56.80;;;33.90;;
25657;SDS011;13517;59.320;18.042;2022-07-01T03:50:15;41.92;;;27.27;;
25657;SDS011;13517;59.320;18.042;2022-07-01T03:52:41;53.75;;;30.30;;
25657;SDS011;13517;59.320;18.042;2022-07-01T03:55:07;57.60;;;31.48;;
25657;SDS011;13517;59.320;18.042;2022-07-01T03:57:36;52.28;;;32.65;;
25657;SDS011;13517;59.320;18.042;2022-07-01T04:00:01;61.80;;;33.92;;
25657;SDS011;13517;59.320;18.042;2022-07-01T04:02:27;63.20;;;36.88;;
25657;SDS011;13517;59.320;18.042;2022-07-01T04:04:52;58.25;;;32.75;;
25657;SDS011;13517;59.320;18.042;2022-07-01T04:07:17;51.73;;;30.30;;
25657;SDS011;13517;59.320;18.042;2022-07-01T04:09:43;46.85;;;29.45;;
25657;SDS011;13517;59.320;18.042;2022-07-01T04:12:09;49.85;;;29.65;;
25657;SDS011;13517;59.320;18.042;2022-07-01T04:14:37;60.88;;;33.70;;
25657;SDS011;13517;59.320;18.042;2022-07-01T04:17:03;62.05;;;34.25;;
25657;SDS011;13517;59.320;18.042;2022-07-01T04:19:28;41.95;;;26.10;;
25657;SDS011;13517;59.320;18.042;2022-07-01T04:21:54;32.42;;;21.70;;
25657;SDS011;13517;59.320;18.042;2022-07-01T04:24:38;30.13;;;21.05;;
25657;SDS011;13517;59.320;18.042;2022-07-01T04:27:04;43.65;;;25.08;;
25657;SDS011;13517;59.320;18.042;2022-07-01T04:29:29;41.45;;;22.95;;
25657;SDS011;13517;59.320;18.042;2022-07-01T04:31:55;40.92;;;21.33;;
25657;SDS011;13517;59.320;18.042;2022-07-01T04:34:21;44.00;;;20.98;;
25657;SDS011;13517;59.320;18.042;2022-07-01T04:36:46;38.00;;;17.83;;
25657;SDS011;13517;59.320;18.042;2022-07-01T04:39:11;26.67;;;16.00;;
25657;SDS011;13517;59.320;18.042;2022-07-01T04:41:37;26.65;;;14.00;;
25657;SDS011;13517;59.320;18.042;2022-07-01T04:44:21;25.98;;;15.40;;
25657;SDS011;13517;59.320;18.042;2022-07-01T04:46:46;24.58;;;13.35;;
25657;SDS011;13517;59.320;18.042;2022-07-01T04:49:12;24.45;;;11.85;;
25657;SDS011;13517;59.320;18.042;2022-07-01T04:51:37;21.92;;;12.68;;
25657;SDS011;13517;59.320;18.042;2022-07-01T04:54:03;23.55;;;13.93;;
25657;SDS011;13517;59.320;18.042;2022-07-01T04:56:31;28.73;;;13.40;;
25657;SDS011;13517;59.320;18.042;2022-07-01T04:58:57;21.05;;;13.63;;
25657;SDS011;13517;59.320;18.042;2022-07-01T05:01:23;21.30;;;12.02;;
25657;SDS011;13517;59.320;18.042;2022-07-01T05:03:48;25.08;;;12.48;;
25657;SDS011;13517;59.320;18.042;2022-07-01T05:06:14;27.40;;;12.75;;
25657;SDS011;13517;59.320;18.042;2022-07-01T05:08:39;33.97;;;13.13;;
25657;SDS011;13517;59.320;18.042;2022-07-01T05:11:04;27.90;;;13.13;;
25657;SDS011;13517;59.320;18.042;2022-07-01T05:13:31;27.00;;;11.95;;
25657;SDS011;13517;59.320;18.042;2022-07-01T05:15:58;27.63;;;11.45;;
25657;SDS011;13517;59.320;18.042;2022-07-01T05:18:23;20.17;;;10.82;;
25657;SDS011;13517;59.320;18.042;2022-07-01T05:21:07;21.52;;;11.13;;
25657;SDS011;13517;59.320;18.042;2022-07-01T05:23:51;22.00;;;12.27;;
25657;SDS011;13517;59.320;18.042;2022-07-01T05:26:16;17.20;;;10.85;;
25657;SDS011;13517;59.320;18.042;2022-07-01T05:28:45;22.17;;;13.73;;
25657;SDS011;13517;59.320;18.042;2022-07-01T05:31:11;28.60;;;14.52;;
25657;SDS011;13517;59.320;18.042;2022-07-01T05:33:36;31.90;;;15.75;;
25657;SDS011;13517;59.320;18.042;2022-07-01T05:36:01;28.20;;;14.85;;
25657;SDS011;13517;59.320;18.042;2022-07-01T05:38:27;29.55;;;14.77;;
25657;SDS011;13517;59.320;18.042;2022-07-01T05:40:52;33.40;;;16.48;;
25657;SDS011;13517;59.320;18.042;2022-07-01T05:43:18;29.58;;;15.32;;
25657;SDS011;13517;59.320;18.042;2022-07-01T05:45:44;32.42;;;15.18;;
25657;SDS011;13517;59.320;18.042;2022-07-01T05:48:09;33.05;;;15.60;;
25657;SDS011;13517;59.320;18.042;2022-07-01T05:50:35;28.83;;;15.35;;
25657;SDS011;13517;59.320;18.042;2022-07-01T05:53:00;32.22;;;14.23;;
25657;SDS011;13517;59.320;18.042;2022-07-01T05:55:25;29.38;;;16.60;;
25657;SDS011;13517;59.320;18.042;2022-07-01T05:57:51;28.58;;;15.18;;
25657;SDS011;13517;59.320;18.042;2022-07-01T06:00:17;30.38;;;13.70;;
25657;SDS011;13517;59.320;18.042;2022-07-01T06:02:42;25.95;;;14.40;;
25657;SDS011;13517;59.320;18.042;2022-07-01T06:05:08;25.80;;;14.50;;
25657;SDS011;13517;59.320;18.042;2022-07-01T06:07:33;26.08;;;15.63;;
25657;SDS011;13517;59.320;18.042;2022-07-01T06:09:58;17.70;;;12.63;;
25657;SDS011;13517;59.320;18.042;2022-07-01T06:12:24;26.38;;;12.95;;
25657;SDS011;13517;59.320;18.042;2022-07-01T06:14:49;21.75;;;14.00;;
25657;SDS011;13517;59.320;18.042;2022-07-01T06:17:15;20.75;;;11.77;;
25657;SDS011;13517;59.320;18.042;2022-07-01T06:19:41;25.67;;;12.20;;
25657;SDS011;13517;59.320;18.042;2022-07-01T06:22:07;24.17;;;11.95;;
25657;SDS011;13517;59.320;18.042;2022-07-01T06:24:32;22.40;;;11.52;;
25657;SDS011;13517;59.320;18.042;2022-07-01T06:26:58;23.02;;;10.57;;
25657;SDS011;13517;59.320;18.042;2022-07-01T06:29:23;24.65;;;11.02;;
25657;SDS011;13517;59.320;18.042;2022-07-01T06:31:48;23.60;;;11.52;;
25657;SDS011;13517;59.320;18.042;2022-07-01T06:34:14;18.10;;;11.50;;
25657;SDS011;13517;59.320;18.042;2022-07-01T06:36:39;22.58;;;11.32;;
25657;SDS011;13517;59.320;18.042;2022-07-01T06:39:05;22.45;;;11.95;;
25657;SDS011;13517;59.320;18.042;2022-07-01T06:41:30;22.60;;;12.13;;
25657;SDS011;13517;59.320;18.042;2022-07-01T06:43:56;23.33;;;10.32;;
25657;SDS011;13517;59.320;18.042;2022-07-01T06:46:24;19.17;;;11.40;;
25657;SDS011;13517;59.320;18.042;2022-07-01T06:48:50;25.23;;;11.23;;
25657;SDS011;13517;59.320;18.042;2022-07-01T06:51:17;19.63;;;10.38;;
25657;SDS011;13517;59.320;18.042;2022-07-01T06:53:43;22.42;;;10.18;;
25657;SDS011;13517;59.320;18.042;2022-07-01T06:56:10;18.42;;;9.57;;
25657;SDS011;13517;59.320;18.042;2022-07-01T06:58:35;15.65;;;10.48;;
25657;SDS011;13517;59.320;18.042;2022-07-01T07:01:01;22.13;;;10.10;;
25657;SDS011;13517;59.320;18.042;2022-07-01T07:03:26;15.98;;;8.02;;
25657;SDS011;13517;59.320;18.042;2022-07-01T07:05:52;16.25;;;7.38;;
25657;SDS011;13517;59.320;18.042;2022-07-01T07:08:18;14.70;;;7.72;;
25657;SDS011;13517;59.320;18.042;2022-07-01T07:10:43;11.45;;;7.82;;
25657;SDS011;13517;59.320;18.042;2022-07-01T07:13:09;11.45;;;6.45;;
25657;SDS011;13517;59.320;18.042;2022-07-01T07:15:34;12.90;;;7.05;;
25657;SDS011;13517;59.320;18.042;2022-07-01T07:17:59;11.93;;;7.20;;
25657;SDS011;13517;59.320;18.042;2022-07-01T07:20:25;18.33;;;8.27;;
25657;SDS011;13517;59.320;18.042;2022-07-01T07:22:50;17.65;;;9.75;;
25657;SDS011;13517;59.320;18.042;2022-07-01T07:25:16;19.42;;;10.13;;
25657;SDS011;13517;59.320;18.042;2022-07-01T07:27:41;16.73;;;10.43;;
25657;SDS011;13517;59.320;18.042;2022-07-01T07:30:11;17.55;;;10.32;;
25657;SDS011;13517;59.320;18.042;2022-07-01T07:32:39;17.77;;;10.55;;
25657;SDS011;13517;59.320;18.042;2022-07-01T07:35:05;22.63;;;10.98;;
25657;SDS011;13517;59.320;18.042;2022-07-01T07:37:31;18.10;;;11.25;;
25657;SDS011;13517;59.320;18.042;2022-07-01T07:39:57;23.02;;;10.77;;
25657;SDS011;13517;59.320;18.042;2022-07-01T07:42:23;17.77;;;11.63;;
25657;SDS011;13517;59.320;18.042;2022-07-01T07:44:48;26.83;;;13.60;;
25657;SDS011;13517;59.320;18.042;2022-07-01T07:47:13;23.02;;;12.27;;
25657;SDS011;13517;59.320;18.042;2022-07-01T07:49:39;30.05;;;14.77;;
25657;SDS011;13517;59.320;18.042;2022-07-01T07:52:04;25.13;;;12.88;;
25657;SDS011;13517;59.320;18.042;2022-07-01T07:54:30;24.58;;;13.52;;
25657;SDS011;13517;59.320;18.042;2022-07-01T07:56:55;23.13;;;13.90;;
25657;SDS011;13517;59.320;18.042;2022-07-01T07:59:21;30.92;;;13.18;;
25657;SDS011;13517;59.320;18.042;2022-07-01T08:01:46;31.92;;;14.05;;
25657;SDS011;13517;59.320;18.042;2022-07-01T08:04:11;30.13;;;14.25;;
25657;SDS011;13517;59.320;18.042;2022-07-01T08:06:36;27.42;;;14.75;;
25657;SDS011;13517;59.320;18.042;2022-07-01T08:09:02;24.83;;;14.50;;
25657;SDS011;13517;59.320;18.042;2022-07-01T08:11:28;28.27;;;13.57;;
25657;SDS011;13517;59.320;18.042;2022-07-01T08:13:54;30.40;;;13.63;;
25657;SDS011;13517;59.320;18.042;2022-07-01T08:16:19;29.05;;;13.80;;
25657;SDS011;13517;59.320;18.042;2022-07-01T08:18:44;27.33;;;14.93;;
25657;SDS011;13517;59.320;18.042;2022-07-01T08:21:10;24.63;;;14.73;;
25657;SDS011;13517;59.320;18.042;2022-07-01T08:23:35;26.45;;;14.68;;
25657;SDS011;13517;59.320;18.042;2022-07-01T08:26:00;27.65;;;15.15;;
25657;SDS011;13517;59.320;18.042;2022-07-01T08:28:26;31.70;;;15.80;;
25657;SDS011;13517;59.320;18.042;2022-07-01T08:30:51;28.60;;;15.43;;
25657;SDS011;13517;59.320;18.042;2022-07-01T08:33:16;37.33;;;15.32;;
25657;SDS011;13517;59.320;18.042;2022-07-01T08:35:42;27.85;;;15.20;;
25657;SDS011;13517;59.320;18.042;2022-07-01T08:38:07;27.25;;;14.02;;
25657;SDS011;13517;59.320;18.042;2022-07-01T08:40:33;24.13;;;14.02;;
25657;SDS011;13517;59.320;18.042;2022-07-01T08:43:02;22.25;;;11.65;;
25657;SDS011;13517;59.320;18.042;2022-07-01T08:45:30;24.25;;;13.00;;
25657;SDS011;13517;59.320;18.042;2022-07-01T08:47:58;20.67;;;12.02;;
25657;SDS011;13517;59.320;18.042;2022-07-01T08:50:39;25.98;;;13.63;;
25657;SDS011;13517;59.320;18.042;2022-07-01T08:53:06;35.65;;;14.18;;
25657;SDS011;13517;59.320;18.042;2022-07-01T08:55:32;22.35;;;13.00;;
25657;SDS011;13517;59.320;18.042;2022-07-01T08:58:19;20.00;;;11.57;;
25657;SDS011;13517;59.320;18.042;2022-07-01T09:00:46;23.40;;;14.00;;
25657;SDS011;13517;59.320;18.042;2022-07-01T09:03:11;26.83;;;13.23;;
25657;SDS011;13517;59.320;18.042;2022-07-01T09:05:36;20.90;;;12.25;;
25657;SDS011;13517;59.320;18.042;2022-07-01T09:08:03;26.92;;;15.23;;
25657;SDS011;13517;59.320;18.042;2022-07-01T09:10:30;20.80;;;12.65;;
25657;SDS011;13517;59.320;18.042;2022-07-01T09:13:05;27.30;;;14.10;;
25657;SDS011;13517;59.320;18.042;2022-07-01T09:15:32;23.13;;;12.63;;
25657;SDS011;13517;59.320;18.042;2022-07-01T09:18:05;29.67;;;14.40;;
25657;SDS011;13517;59.320;18.042;2022-07-01T09:20:42;26.45;;;14.70;;
25657;SDS011;13517;59.320;18.042;2022-07-01T09:23:11;28.60;;;13.45;;
25657;SDS011;13517;59.320;18.042;2022-07-01T09:25:39;22.33;;;14.48;;
25657;SDS011;13517;59.320;18.042;2022-07-01T09:30:38;25.20;;;12.18;;
25657;SDS011;13517;59.320;18.042;2022-07-01T09:33:08;14.88;;;10.73;;
25657;SDS011;13517;59.320;18.042;2022-07-01T09:35:35;21.92;;;12.65;;
25657;SDS011;13517;59.320;18.042;2022-07-01T09:38:02;18.05;;;11.60;;
25657;SDS011;13517;59.320;18.042;2022-07-01T09:43:20;15.35;;;9.82;;
25657;SDS011;13517;59.320;18.042;2022-07-01T09:45:56;14.55;;;9.60;;
25657;SDS011;13517;59.320;18.042;2022-07-01T09:48:26;18.40;;;10.32;;
25657;SDS011;13517;59.320;18.042;2022-07-01T09:51:13;15.93;;;9.73;;
25657;SDS011;13517;59.320;18.042;2022-07-01T09:53:39;13.80;;;9.57;;
25657;SDS011;13517;59.320;18.042;2022-07-01T09:56:05;17.08;;;9.77;;
25657;SDS011;13517;59.320;18.042;2022-07-01T09:58:30;14.93;;;9.07;;
25657;SDS011;13517;59.320;18.042;2022-07-01T10:01:00;13.60;;;9.30;;
25657;SDS011;13517;59.320;18.042;2022-07-01T10:03:27;15.48;;;9.88;;
25657;SDS011;13517;59.320;18.042;2022-07-01T10:05:57;15.15;;;9.10;;
25657;SDS011;13517;59.320;18.042;2022-07-01T10:14:07;15.65;;;10.20;;
25657;SDS011;13517;59.320;18.042;2022-07-01T10:16:35;14.18;;;9.82;;
25657;SDS011;13517;59.320;18.042;2022-07-01T10:21:51;15.85;;;9.68;;
25657;SDS011;13517;59.320;18.042;2022-07-01T10:24:20;16.25;;;10.82;;
25657;SDS011;13517;59.320;18.042;2022-07-01T10:26:46;14.50;;;9.20;;
25657;SDS011;13517;59.320;18.042;2022-07-01T10:34:32;12.18;;;9.48;;
25657;SDS011;13517;59.320;18.042;2022-07-01T10:39:26;12.73;;;9.35;;
25657;SDS011;13517;59.320;18.042;2022-07-01T10:44:17;15.87;;;9.80;;
25657;SDS011;13517;59.320;18.042;2022-07-01T10:46:58;16.00;;;9.70;;
25657;SDS011;13517;59.320;18.042;2022-07-01T10:59:42;15.20;;;8.73;;
25657;SDS011;13517;59.320;18.042;2022-07-01T11:02:11;13.70;;;8.70;;
25657;SDS011;13517;59.320;18.042;2022-07-01T11:04:39;29.88;;;27.63;;
25657;SDS011;13517;59.320;18.042;2022-07-01T11:07:04;27.83;;;25.77;;
25657;SDS011;13517;59.320;18.042;2022-07-01T11:09:29;23.02;;;21.20;;
25657;SDS011;13517;59.320;18.042;2022-07-01T11:11:55;19.70;;;17.80;;
25657;SDS011;13517;59.320;18.042;2022-07-01T11:14:21;28.35;;;26.02;;
25657;SDS011;13517;59.320;18.042;2022-07-01T11:16:46;14.13;;;11.43;;
25657;SDS011;13517;59.320;18.042;2022-07-01T11:19:11;14.80;;;11.35;;
25657;SDS011;13517;59.320;18.042;2022-07-01T11:21:36;11.23;;;9.68;;
25657;SDS011;13517;59.320;18.042;2022-07-01T11:24:02;14.95;;;9.00;;
25657;SDS011;13517;59.320;18.042;2022-07-01T11:26:32;13.02;;;11.77;;
25657;SDS011;13517;59.320;18.042;2022-07-01T11:28:58;9.88;;;7.93;;
25657;SDS011;13517;59.320;18.042;2022-07-01T11:31:30;19.27;;;9.68;;
25657;SDS011;13517;59.320;18.042;2022-07-01T11:33:56;11.85;;;8.88;;
25657;SDS011;13517;59.320;18.042;2022-07-01T11:36:21;12.40;;;8.82;;
25657;SDS011;13517;59.320;18.042;2022-07-01T11:39:05;12.02;;;9.52;;
25657;SDS011;13517;59.320;18.042;2022-07-01T11:41:58;15.75;;;9.65;;
25657;SDS011;13517;59.320;18.042;2022-07-01T11:46:57;11.57;;;10.40;;
25657;SDS011;13517;59.320;18.042;2022-07-01T11:49:22;15.02;;;8.32;;
25657;SDS011;13517;59.320;18.042;2022-07-01T11:51:55;11.13;;;7.70;;
25657;SDS011;13517;59.320;18.042;2022-07-01T11:56:48;14.55;;;7.72;;
25657;SDS011;13517;59.320;18.042;2022-07-01T11:59:13;8.80;;;7.13;;
25657;SDS011;13517;59.320;18.042;2022-07-01T12:01:39;12.82;;;7.85;;
25657;SDS011;13517;59.320;18.042;2022-07-01T12:04:05;13.05;;;8.77;;
25657;SDS011;13517;59.320;18.042;2022-07-01T12:06:32;16.75;;;8.18;;
25657;SDS011;13517;59.320;18.042;2022-07-01T12:08:58;8.60;;;7.38;;
25657;SDS011;13517;59.320;18.042;2022-07-01T12:11:26;12.55;;;8.05;;
25657;SDS011;13517;59.320;18.042;2022-07-01T12:13:52;10.80;;;8.32;;
25657;SDS011;13517;59.320;18.042;2022-07-01T12:16:19;11.48;;;7.95;;
25657;SDS011;13517;59.320;18.042;2022-07-01T12:18:51;9.65;;;8.25;;
25657;SDS011;13517;59.320;18.042;2022-07-01T12:21:26;12.07;;;8.43;;
25657;SDS011;13517;59.320;18.042;2022-07-01T12:24:02;13.52;;;8.13;;
25657;SDS011;13517;59.320;18.042;2022-07-01T12:26:31;11.25;;;8.20;;
25657;SDS011;13517;59.320;18.042;2022-07-01T12:28:56;13.32;;;7.63;;
25657;SDS011;13517;59.320;18.042;2022-07-01T12:31:22;10.77;;;7.60;;
25657;SDS011;13517;59.320;18.042;2022-07-01T12:33:51;18.02;;;8.60;;
25657;SDS011;13517;59.320;18.042;2022-07-01T12:36:17;12.77;;;8.95;;
25657;SDS011;13517;59.320;18.042;2022-07-01T12:38:42;9.75;;;8.70;;
25657;SDS011;13517;59.320;18.042;2022-07-01T12:41:27;12.52;;;8.25;;
25657;SDS011;13517;59.320;18.042;2022-07-01T12:43:54;16.83;;;8.35;;
25657;SDS011;13517;59.320;18.042;2022-07-01T12:46:29;12.02;;;7.97;;
25657;SDS011;13517;59.320;18.042;2022-07-01T12:48:55;14.70;;;8.05;;
25657;SDS011;13517;59.320;18.042;2022-07-01T12:51:21;15.02;;;10.00;;
25657;SDS011;13517;59.320;18.042;2022-07-01T12:53:53;14.38;;;10.18;;
25657;SDS011;13517;59.320;18.042;2022-07-01T12:56:22;12.98;;;9.70;;
25657;SDS011;13517;59.320;18.042;2022-07-01T12:58:49;14.65;;;10.43;;
25657;SDS011;13517;59.320;18.042;2022-07-01T13:01:17;14.07;;;9.13;;
25657;SDS011;13517;59.320;18.042;2022-07-01T13:03:42;15.38;;;10.00;;
25657;SDS011;13517;59.320;18.042;2022-07-01T13:06:08;15.30;;;9.98;;
25657;SDS011;13517;59.320;18.042;2022-07-01T13:08:33;10.98;;;8.93;;
25657;SDS011;13517;59.320;18.042;2022-07-01T13:10:58;13.60;;;9.33;;
25657;SDS011;13517;59.320;18.042;2022-07-01T13:13:24;16.67;;;10.02;;
25657;SDS011;13517;59.320;18.042;2022-07-01T13:15:49;16.73;;;9.75;;
25657;SDS011;13517;59.320;18.042;2022-07-01T13:18:14;14.43;;;9.75;;
25657;SDS011;13517;59.320;18.042;2022-07-01T13:20:40;12.88;;;9.35;;
25657;SDS011;13517;59.320;18.042;2022-07-01T13:23:06;14.15;;;9.95;;
25657;SDS011;13517;59.320;18.042;2022-07-01T13:25:31;14.93;;;8.90;;
25657;SDS011;13517;59.320;18.042;2022-07-01T13:27:57;12.30;;;8.70;;
25657;SDS011;13517;59.320;18.042;2022-07-01T13:30:23;14.90;;;9.40;;
25657;SDS011;13517;59.320;18.042;2022-07-01T13:32:48;12.68;;;8.75;;
25657;SDS011;13517;59.320;18.042;2022-07-01T13:35:17;12.40;;;9.00;;
25657;SDS011;13517;59.320;18.042;2022-07-01T13:37:42;10.90;;;8.30;;
25657;SDS011;13517;59.320;18.042;2022-07-01T13:40:08;13.65;;;8.88;;
25657;SDS011;13517;59.320;18.042;2022-07-01T13:42:35;15.05;;;9.27;;
25657;SDS011;13517;59.320;18.042;2022-07-01T13:45:00;10.90;;;8.70;;
25657;SDS011;13517;59.320;18.042;2022-07-01T13:47:25;12.30;;;8.95;;
25657;SDS011;13517;59.320;18.042;2022-07-01T13:49:51;13.95;;;9.02;;
25657;SDS011;13517;59.320;18.042;2022-07-01T13:52:16;13.38;;;8.98;;
25657;SDS011;13517;59.320;18.042;2022-07-01T13:54:42;14.73;;;9.00;;
25657;SDS011;13517;59.320;18.042;2022-07-01T13:57:07;13.88;;;9.25;;
25657;SDS011;13517;59.320;18.042;2022-07-01T13:59:33;19.88;;;10.07;;
25657;SDS011;13517;59.320;18.042;2022-07-01T14:01:59;18.02;;;10.10;;
25657;SDS011;13517;59.320;18.042;2022-07-01T14:04:24;16.23;;;9.70;;
25657;SDS011;13517;59.320;18.042;2022-07-01T14:06:50;16.05;;;9.88;;
25657;SDS011;13517;59.320;18.042;2022-07-01T14:09:15;14.20;;;9.32;;
25657;SDS011;13517;59.320;18.042;2022-07-01T14:11:40;11.68;;;8.48;;
25657;SDS011;13517;59.320;18.042;2022-07-01T14:14:06;14.43;;;9.35;;
25657;SDS011;13517;59.320;18.042;2022-07-01T14:16:31;15.98;;;8.48;;
25657;SDS011;13517;59.320;18.042;2022-07-01T14:18:57;14.85;;;8.95;;
25657;SDS011;13517;59.320;18.042;2022-07-01T14:21:22;13.25;;;8.60;;
25657;SDS011;13517;59.320;18.042;2022-07-01T14:23:48;11.73;;;8.30;;
25657;SDS011;13517;59.320;18.042;2022-07-01T14:26:14;9.95;;;7.78;;
25657;SDS011;13517;59.320;18.042;2022-07-01T14:28:40;10.95;;;8.35;;
25657;SDS011;13517;59.320;18.042;2022-07-01T14:31:06;17.45;;;8.20;;
25657;SDS011;13517;59.320;18.042;2022-07-01T14:33:32;13.52;;;8.00;;
25657;SDS011;13517;59.320;18.042;2022-07-01T14:35:58;11.35;;;7.82;;
25657;SDS011;13517;59.320;18.042;2022-07-01T14:38:23;14.93;;;8.88;;
25657;SDS011;13517;59.320;18.042;2022-07-01T14:40:49;10.88;;;7.82;;
25657;SDS011;13517;59.320;18.042;2022-07-01T14:43:14;8.43;;;7.55;;
25657;SDS011;13517;59.320;18.042;2022-07-01T14:45:40;10.95;;;7.80;;
25657;SDS011;13517;59.320;18.042;2022-07-01T14:48:05;7.47;;;6.75;;
25657;SDS011;13517;59.320;18.042;2022-07-01T14:50:32;7.28;;;6.53;;